Time;durP1;ratioP1;P1;durP2;ratioP2;P2;SDS_P1;SDS_P2;PMS_P1;PMS_P2;Temp;Humidity;BMP_temperature;BMP_pressure;BME280_temperature;BME280_humidity;BME280_pressure;Samples;Min_cycle;Max_cycle;Signal;HPM_P1;HPM_P2
2022/12/29 00:01:33;;;;;;;0.00;0.00;;;;;;;9.99;100.00;100012.94;5003823;28;20037;-81
2022/12/29 00:03:59;;;;;;;0.10;0.10;;;;;;;10.15;100.00;100000.84;5001484;28;20038;-79
2022/12/29 00:06:25;;;;;;;0.10;0.10;;;;;;;10.03;100.00;99998.28;5000696;28;20033;-77
2022/12/29 00:08:50;;;;;;;0.10;0.10;;;;;;;9.92;100.00;99992.19;4995667;28;20113;-76
2022/12/29 00:11:18;;;;;;;0.03;0.03;;;;;;;9.88;100.00;100013.91;4983967;28;20124;-78
2022/12/29 00:16:28;;;;;;;0.10;0.10;;;;;;;9.94;100.00;100000.91;4995155;28;20040;-78
2022/12/29 00:18:53;;;;;;;0.10;0.10;;;;;;;9.70;100.00;99989.56;4984792;28;20535;-79
2022/12/29 00:35:28;;;;;;;0.05;0.05;;;;;;;9.79;100.00;99963.75;5004533;28;20096;-78
2022/12/29 00:46:07;;;;;;;0.10;0.10;;;;;;;9.53;100.00;99956.19;5005192;28;20028;-78
2022/12/29 00:51:16;;;;;;;0.10;0.10;;;;;;;9.41;100.00;99939.34;5006003;28;20065;-77
2022/12/29 00:53:42;;;;;;;0.10;0.10;;;;;;;9.29;100.00;99952.00;5001225;28;20515;-77
2022/12/29 00:56:07;;;;;;;0.10;0.10;;;;;;;9.27;100.00;99947.75;5003622;28;20353;-76
2022/12/29 00:58:32;;;;;;;0.10;0.10;;;;;;;9.40;100.00;99951.06;5014567;28;20034;-77
2022/12/29 01:01:05;;;;;;;0.10;0.10;;;;;;;8.83;100.00;99915.78;5016180;28;20033;-76
2022/12/29 01:03:32;;;;;;;0.10;0.10;;;;;;;8.91;100.00;99944.59;4995444;28;20030;-79
2022/12/29 01:06:01;;;;;;;0.10;0.10;;;;;;;9.17;100.00;99931.63;5004805;28;20283;-78
2022/12/29 01:08:27;;;;;;;0.08;0.08;;;;;;;9.14;100.00;99924.72;5005093;28;20550;-76
2022/12/29 01:11:04;;;;;;;0.10;0.10;;;;;;;9.13;100.00;99936.41;4998800;28;20080;-75
2022/12/29 01:13:30;;;;;;;0.10;0.10;;;;;;;9.03;100.00;99942.69;4992944;28;20026;-76
2022/12/29 01:15:56;;;;;;;0.00;0.00;;;;;;;9.20;100.00;99930.53;5001780;28;20033;-75
2022/12/29 01:18:22;;;;;;;0.10;0.10;;;;;;;9.17;100.00;99936.97;4992746;28;20484;-77
2022/12/29 01:20:48;;;;;;;0.10;0.10;;;;;;;9.34;100.00;99924.78;5003840;28;20032;-76
2022/12/29 01:23:13;;;;;;;0.10;0.10;;;;;;;8.98;100.00;99871.63;5000288;28;20034;-76
2022/12/29 01:25:38;;;;;;;0.10;0.10;;;;;;;9.35;100.00;99907.75;4993998;28;20104;-75
2022/12/29 01:28:04;;;;;;;0.10;0.10;;;;;;;9.40;100.00;99923.44;5004507;28;20104;-77
2022/12/29 01:30:29;;;;;;;0.10;0.10;;;;;;;9.34;100.00;99915.94;5005900;28;20472;-76
2022/12/29 01:32:54;;;;;;;0.10;0.10;;;;;;;9.45;100.00;99911.31;5001878;28;20038;-75
2022/12/29 01:35:19;;;;;;;0.10;0.10;;;;;;;9.89;100.00;99904.81;5003548;28;20107;-75
2022/12/29 01:37:45;;;;;;;0.10;0.10;;;;;;;9.68;100.00;99916.47;4994586;28;20080;-76
2022/12/29 01:40:11;;;;;;;0.10;0.10;;;;;;;9.57;100.00;99905.84;5005227;28;20369;-77
2022/12/29 01:42:36;;;;;;;0.05;0.05;;;;;;;9.69;100.00;99883.31;4995311;28;20042;-75
2022/12/29 01:45:11;;;;;;;0.00;0.00;;;;;;;9.82;100.00;99872.34;5002433;28;20480;-74
2022/12/29 01:47:57;;;;;;;0.05;0.05;;;;;;;9.76;100.00;99886.28;4993674;28;20499;-81
2022/12/29 01:50:30;;;;;;;0.10;0.10;;;;;;;9.72;100.00;99896.44;4988604;28;20109;-75
2022/12/29 01:53:05;;;;;;;0.10;0.10;;;;;;;9.71;100.00;99883.16;4999471;28;20033;-75
2022/12/29 01:55:34;;;;;;;0.10;0.10;;;;;;;9.82;100.00;99898.28;5001146;28;20031;-77
2022/12/29 01:58:01;;;;;;;0.10;0.10;;;;;;;9.86;100.00;99889.84;5016672;28;20033;-78
2022/12/29 02:00:26;;;;;;;0.10;0.10;;;;;;;10.09;100.00;99880.69;5015833;28;20028;-75
2022/12/29 02:02:52;;;;;;;0.10;0.10;;;;;;;10.04;100.00;99878.44;5006580;28;20050;-77
2022/12/29 02:05:28;;;;;;;0.10;0.10;;;;;;;10.11;100.00;99903.72;4990409;28;20060;-78
2022/12/29 02:07:53;;;;;;;0.10;0.10;;;;;;;10.12;100.00;99883.97;5005518;28;20041;-76
2022/12/29 02:10:21;;;;;;;0.10;0.10;;;;;;;10.14;100.00;99892.72;5015176;28;20048;-77
2022/12/29 02:12:46;;;;;;;0.10;0.10;;;;;;;10.19;100.00;99901.19;5009127;28;20117;-78
2022/12/29 02:15:12;;;;;;;0.10;0.10;;;;;;;10.00;100.00;99871.66;4998608;28;20091;-74
2022/12/29 02:17:57;;;;;;;0.10;0.10;;;;;;;10.15;100.00;99915.88;5011244;28;20044;-79
2022/12/29 02:20:30;;;;;;;;;;;;;;;10.24;100.00;99902.59;5006787;28;20080;-75
2022/12/29 02:23:14;;;;;;;0.10;0.10;;;;;;;10.16;100.00;99905.97;5014135;28;19917;-78
2022/12/29 02:25:48;;;;;;;0.10;0.10;;;;;;;10.11;100.00;99911.75;5015443;28;20033;-78
2022/12/29 02:28:47;;;;;;;0.10;0.10;;;;;;;10.26;100.00;99914.88;5011461;28;20033;-75
2022/12/29 02:31:28;;;;;;;0.10;0.10;;;;;;;10.23;100.00;99891.03;5007477;28;20578;-81
2022/12/29 02:33:53;;;;;;;0.10;0.10;;;;;;;10.36;100.00;99893.41;5006097;28;20447;-79
2022/12/29 02:36:46;;;;;;;0.10;0.10;;;;;;;10.35;100.00;99887.19;5009112;28;20505;-76
2022/12/29 02:39:40;;;;;;;0.00;0.00;;;;;;;10.35;100.00;99902.47;5004869;28;20034;-78
2022/12/29 02:42:23;;;;;;;0.10;0.10;;;;;;;10.45;100.00;99915.91;5011019;28;20040;-76
2022/12/29 02:45:00;;;;;;;0.10;0.10;;;;;;;10.21;100.00;99867.00;5006994;28;20030;-80
2022/12/29 02:47:48;;;;;;;0.00;0.00;;;;;;;10.46;100.00;99872.81;5012684;28;20026;-77
2022/12/29 02:50:19;;;;;;;0.10;0.10;;;;;;;10.63;100.00;99871.25;5003049;28;20030;-77
2022/12/29 02:52:50;;;;;;;0.00;0.00;;;;;;;10.40;100.00;99886.81;5000454;28;20371;-79
2022/12/29 02:55:16;;;;;;;0.10;0.10;;;;;;;10.32;100.00;99876.78;5003504;28;20054;-78
2022/12/29 02:57:41;;;;;;;0.00;0.00;;;;;;;10.55;100.00;99889.06;5014938;28;20097;-77
2022/12/29 03:00:10;;;;;;;0.10;0.10;;;;;;;10.75;100.00;99897.94;5021502;28;20764;-78
2022/12/29 03:02:44;;;;;;;0.10;0.10;;;;;;;10.67;100.00;99890.59;5013562;28;20026;-80
2022/12/29 03:05:40;;;;;;;0.08;0.08;;;;;;;10.47;100.00;99882.56;4996555;28;20102;-79
2022/12/29 03:08:23;;;;;;;0.10;0.10;;;;;;;10.38;100.00;99872.66;5000935;28;20038;-77
2022/12/29 03:11:02;;;;;;;0.08;0.08;;;;;;;10.43;100.00;99858.84;4997739;28;20717;-76
2022/12/29 03:16:37;;;;;;;0.05;0.05;;;;;;;10.53;100.00;99877.63;5016705;28;20037;-77
2022/12/29 03:19:06;;;;;;;0.10;0.10;;;;;;;10.29;100.00;99860.94;4997138;28;20057;-83
2022/12/29 03:24:29;;;;;;;0.10;0.10;;;;;;;10.23;100.00;99866.88;4995198;28;20499;-80
2022/12/29 03:26:57;;;;;;;0.10;0.10;;;;;;;10.33;100.00;99893.69;5008644;28;20041;-76
2022/12/29 03:29:23;;;;;;;0.10;0.10;;;;;;;10.29;100.00;99857.41;5012826;28;20116;-79
2022/12/29 03:31:50;;;;;;;0.05;0.05;;;;;;;10.24;100.00;99855.16;5001040;28;20038;-79
2022/12/29 03:34:18;;;;;;;0.10;0.10;;;;;;;10.30;100.00;99876.06;4999174;28;20040;-79
2022/12/29 03:36:48;;;;;;;0.08;0.08;;;;;;;10.25;100.00;99889.03;5003429;28;20065;-79
2022/12/29 03:39:13;;;;;;;0.10;0.10;;;;;;;10.32;100.00;99866.03;5035778;22;20091;-77
2022/12/29 03:41:41;;;;;;;0.10;0.10;;;;;;;10.32;100.00;99879.44;5021904;28;20132;-79
2022/12/29 03:44:07;;;;;;;0.10;0.10;;;;;;;10.25;100.00;99853.31;5001251;28;20037;-79
2022/12/29 03:46:32;;;;;;;0.10;0.10;;;;;;;10.25;100.00;99862.22;5021336;28;20032;-78
2022/12/29 03:48:58;;;;;;;0.10;0.10;;;;;;;10.48;100.00;99862.78;5020199;28;20116;-79
2022/12/29 03:51:23;;;;;;;0.10;0.10;;;;;;;10.43;100.00;99854.34;5020822;28;20555;-81
2022/12/29 03:53:49;;;;;;;0.10;0.10;;;;;;;10.18;100.00;99861.94;5019956;28;20607;-79
2022/12/29 03:56:14;;;;;;;0.10;0.10;;;;;;;10.15;100.00;99850.63;5006714;28;20025;-76
2022/12/29 03:58:40;;;;;;;0.10;0.10;;;;;;;10.31;100.00;99861.66;5016976;28;20063;-78
2022/12/29 04:01:05;;;;;;;0.00;0.00;;;;;;;10.17;100.00;99837.94;5018193;28;20036;-80
2022/12/29 04:03:30;;;;;;;0.00;0.00;;;;;;;10.18;100.00;99853.03;5004224;28;20033;-78
2022/12/29 04:05:55;;;;;;;0.08;0.08;;;;;;;10.16;100.00;99846.97;4996641;28;20061;-78
2022/12/29 04:08:21;;;;;;;0.10;0.10;;;;;;;10.02;100.00;99841.03;5035416;28;20025;-77
2022/12/29 04:10:48;;;;;;;0.00;0.00;;;;;;;10.09;100.00;99843.13;5018677;28;20068;-80
2022/12/29 04:13:13;;;;;;;0.00;0.00;;;;;;;10.09;100.00;99849.38;5019278;28;20035;-78
2022/12/29 04:15:38;;;;;;;0.00;0.00;;;;;;;10.01;100.00;99833.97;5006267;28;20391;-79
2022/12/29 04:18:04;;;;;;;0.10;0.10;;;;;;;9.98;100.00;99861.09;5005530;28;20048;-78
2022/12/29 04:23:13;;;;;;;0.10;0.10;;;;;;;10.01;100.00;99852.75;5031382;28;20089;-76
2022/12/29 04:25:38;;;;;;;0.10;0.10;;;;;;;9.86;100.00;99878.25;5023624;28;20420;-77
2022/12/29 04:28:04;;;;;;;0.10;0.10;;;;;;;9.85;100.00;99874.75;5034636;28;20029;-78
2022/12/29 04:30:29;;;;;;;0.10;0.10;;;;;;;9.65;100.00;99849.72;5014138;28;20056;-77
2022/12/29 04:32:54;;;;;;;0.10;0.10;;;;;;;9.40;100.00;99872.53;5020424;28;20112;-79
2022/12/29 04:35:20;;;;;;;0.10;0.10;;;;;;;9.24;100.00;99852.44;5020848;28;20029;-80
2022/12/29 04:37:45;;;;;;;0.10;0.10;;;;;;;9.02;100.00;99840.06;5022509;28;21156;-81
2022/12/29 04:40:11;;;;;;;0.10;0.10;;;;;;;8.99;100.00;99862.63;5025048;28;20060;-80
2022/12/29 04:42:36;;;;;;;0.10;0.10;;;;;;;9.08;100.00;99869.00;5020010;28;20038;-77
2022/12/29 04:45:02;;;;;;;0.10;0.10;;;;;;;8.87;100.00;99839.59;5005881;28;20051;-78
2022/12/29 04:47:27;;;;;;;0.10;0.10;;;;;;;8.92;100.00;99864.13;5021307;28;20404;-76
2022/12/29 04:49:52;;;;;;;0.10;0.10;;;;;;;8.96;100.00;99873.59;5018990;28;20068;-79
2022/12/29 04:52:18;;;;;;;0.10;0.10;;;;;;;8.84;100.00;99872.00;4997063;28;20032;-79
2022/12/29 04:54:43;;;;;;;0.10;0.10;;;;;;;8.81;100.00;99854.34;5016031;28;20420;-79
2022/12/29 04:57:08;;;;;;;0.00;0.00;;;;;;;8.98;100.00;99873.47;5017887;28;20543;-78
2022/12/29 04:59:33;;;;;;;0.10;0.10;;;;;;;9.07;100.00;99869.16;5018117;28;20443;-77
2022/12/29 05:01:59;;;;;;;0.10;0.10;;;;;;;9.04;100.00;99869.41;5016754;28;20037;-78
2022/12/29 05:04:24;;;;;;;0.10;0.10;;;;;;;8.88;100.00;99868.03;5002775;28;20061;-77
2022/12/29 05:06:49;;;;;;;0.10;0.10;;;;;;;8.74;100.00;99874.59;5017981;28;20181;-78
2022/12/29 05:09:15;;;;;;;0.10;0.10;;;;;;;8.55;100.00;99875.31;5016247;28;20084;-78
2022/12/29 05:11:40;;;;;;;0.10;0.10;;;;;;;8.83;100.00;99913.13;5017704;28;20056;-80
2022/12/29 05:14:05;;;;;;;0.10;0.10;;;;;;;8.67;100.00;99876.94;5016792;28;20029;-75
2022/12/29 05:16:31;;;;;;;0.10;0.10;;;;;;;8.94;100.00;99901.50;5001060;28;20161;-79
2022/12/29 05:18:56;;;;;;;0.10;0.10;;;;;;;8.93;100.00;99930.06;5017825;28;20033;-77
2022/12/29 05:21:21;;;;;;;0.10;0.10;;;;;;;8.83;100.00;99913.13;5016506;28;20038;-77
2022/12/29 05:23:47;;;;;;;0.10;0.10;;;;;;;8.78;100.00;99936.75;5018587;28;20044;-78
2022/12/29 05:26:12;;;;;;;0.10;0.10;;;;;;;8.69;100.00;99908.94;5014752;28;20523;-77
2022/12/29 05:28:37;;;;;;;0.10;0.10;;;;;;;8.75;100.00;99934.31;5019143;28;20038;-77
2022/12/29 05:31:03;;;;;;;0.10;0.10;;;;;;;8.85;100.00;99924.53;5035358;28;20036;-77
2022/12/29 05:33:28;;;;;;;0.10;0.10;;;;;;;9.00;100.00;99941.13;5019993;28;20076;-80
2022/12/29 05:35:53;;;;;;;0.10;0.10;;;;;;;8.79;100.00;99947.31;5023678;28;20481;-78
2022/12/29 05:38:19;;;;;;;0.10;0.10;;;;;;;8.63;100.00;99926.34;5011734;28;20055;-78
2022/12/29 05:40:44;;;;;;;0.10;0.10;;;;;;;8.96;100.00;99958.44;5010995;28;20072;-79
2022/12/29 05:43:09;;;;;;;0.10;0.10;;;;;;;8.99;100.00;99960.84;5018472;28;20076;-80
2022/12/29 05:45:36;;;;;;;0.10;0.10;;;;;;;8.99;100.00;99967.03;5040430;28;20113;-77
2022/12/29 05:48:02;;;;;;;0.10;0.10;;;;;;;8.83;100.00;99946.06;5023167;28;20057;-80
2022/12/29 05:50:27;;;;;;;0.10;0.10;;;;;;;8.82;100.00;99975.66;5018436;28;20075;-80
2022/12/29 05:52:53;;;;;;;0.10;0.10;;;;;;;9.07;100.00;99985.13;5024068;28;20040;-80
2022/12/29 05:55:18;;;;;;;0.10;0.10;;;;;;;8.97;100.00;99960.13;5021287;28;20075;-78
2022/12/29 05:57:43;;;;;;;0.10;0.10;;;;;;;9.14;100.00;99974.72;5008123;28;20092;-78
2022/12/29 06:00:09;;;;;;;0.10;0.10;;;;;;;8.98;100.00;99961.81;5023479;28;20084;-77
2022/12/29 06:02:35;;;;;;;0.10;0.10;;;;;;;9.02;100.00;99973.13;5024697;28;20025;-79
2022/12/29 06:05:00;;;;;;;0.10;0.10;;;;;;;9.36;100.00;100011.25;5007580;28;20025;-78
2022/12/29 06:07:25;;;;;;;0.10;0.10;;;;;;;9.06;100.00;99975.38;5023598;28;20244;-80
2022/12/29 06:09:51;;;;;;;0.10;0.10;;;;;;;9.33;100.00;99998.09;5017179;28;20044;-77
2022/12/29 06:12:16;;;;;;;0.10;0.10;;;;;;;9.11;100.00;99975.00;5021927;28;20025;-79
2022/12/29 06:14:42;;;;;;;0.17;0.17;;;;;;;9.10;100.00;99976.81;5019056;28;20103;-79
2022/12/29 06:17:07;;;;;;;0.10;0.10;;;;;;;9.06;100.00;99962.00;5020252;28;20036;-79
2022/12/29 06:19:32;;;;;;;0.10;0.10;;;;;;;8.98;100.00;99962.66;5021950;28;20030;-80
2022/12/29 06:21:58;;;;;;;0.10;0.10;;;;;;;8.95;100.00;99962.91;5021371;28;20032;-80
2022/12/29 06:24:23;;;;;;;0.10;0.10;;;;;;;8.99;100.00;99963.53;5022465;28;20558;-77
2022/12/29 06:26:48;;;;;;;0.10;0.10;;;;;;;8.95;100.00;99976.31;5019816;28;20391;-79
2022/12/29 06:29:17;;;;;;;0.10;0.10;;;;;;;9.24;100.00;99978.31;5025305;28;20036;-79
2022/12/29 06:31:45;;;;;;;0.10;0.10;;;;;;;9.37;100.00;99962.03;5025724;28;20033;-78
2022/12/29 06:34:11;;;;;;;0.10;0.10;;;;;;;9.15;100.00;99955.00;5022173;28;20111;-80
2022/12/29 06:36:36;;;;;;;0.10;0.10;;;;;;;9.29;100.00;99976.09;5021504;28;20100;-75
2022/12/29 06:39:02;;;;;;;0.10;0.10;;;;;;;9.03;100.00;99970.28;5022898;28;20117;-79
2022/12/29 06:41:27;;;;;;;0.10;0.10;;;;;;;9.05;100.00;99957.63;5024967;28;20082;-79
2022/12/29 06:43:52;;;;;;;0.10;0.10;;;;;;;8.96;100.00;99961.09;5024151;28;20032;-78
2022/12/29 06:46:18;;;;;;;0.13;0.13;;;;;;;9.02;100.00;99973.94;5023317;28;20112;-79
2022/12/29 06:48:43;;;;;;;0.10;0.10;;;;;;;8.88;100.00;99968.94;5026827;28;20116;-79
2022/12/29 06:51:08;;;;;;;0.10;0.10;;;;;;;8.84;100.00;99947.78;5020553;28;20055;-79
2022/12/29 06:53:34;;;;;;;0.10;0.10;;;;;;;9.07;100.00;99976.25;5021281;28;20049;-80
2022/12/29 06:55:59;;;;;;;0.10;0.10;;;;;;;8.82;100.00;99960.44;5026082;28;20037;-81
2022/12/29 06:58:25;;;;;;;0.10;0.10;;;;;;;8.66;100.00;99957.38;5026984;28;20075;-80
2022/12/29 07:00:50;;;;;;;0.10;0.10;;;;;;;8.90;100.00;99961.63;5023633;28;20831;-80
2022/12/29 07:03:15;;;;;;;0.10;0.10;;;;;;;9.09;100.00;99967.09;5011138;28;20038;-81
2022/12/29 07:05:41;;;;;;;0.10;0.10;;;;;;;9.29;100.00;99978.78;5019385;28;20084;-77
2022/12/29 07:08:06;;;;;;;0.10;0.10;;;;;;;8.93;100.00;99964.88;5022538;28;20112;-81
2022/12/29 07:10:32;;;;;;;0.10;0.10;;;;;;;9.48;100.00;99969.13;5023913;28;20040;-77
2022/12/29 07:12:57;;;;;;;0.10;0.10;;;;;;;9.23;100.00;99952.50;5023260;28;20571;-79
2022/12/29 07:15:22;;;;;;;0.10;0.10;;;;;;;9.66;100.00;99972.03;5024751;28;20037;-76
2022/12/29 07:17:49;;;;;;;0.10;0.10;;;;;;;9.37;100.00;99972.75;5020123;28;20054;-79
2022/12/29 07:20:14;;;;;;;0.10;0.10;;;;;;;9.42;100.00;100005.34;5021020;28;20120;-78
2022/12/29 07:22:40;;;;;;;0.10;0.10;;;;;;;9.40;100.00;99985.06;5008948;28;20151;-80
2022/12/29 07:25:05;;;;;;;0.10;0.10;;;;;;;9.17;100.00;99973.63;5023746;28;20391;-79
2022/12/29 07:27:31;;;;;;;0.10;0.10;;;;;;;9.58;100.00;99986.13;5026786;28;20074;-79
2022/12/29 07:29:56;;;;;;;0.08;0.08;;;;;;;9.71;100.00;99991.25;5022152;28;20041;-79
2022/12/29 07:32:21;;;;;;;0.10;0.10;;;;;;;9.51;100.00;100019.78;5020231;28;20036;-78
2022/12/29 07:34:47;;;;;;;0.10;0.10;;;;;;;9.62;100.00;100020.69;5001180;28;20029;-80
2022/12/29 07:37:14;;;;;;;0.10;0.10;;;;;;;9.64;100.00;100032.13;5014286;28;20041;-78
2022/12/29 07:39:39;;;;;;;0.10;0.10;;;;;;;9.48;100.00;100037.97;5014869;28;20540;-79
2022/12/29 07:42:05;;;;;;;0.10;0.10;;;;;;;9.63;100.00;100025.06;5022666;28;20136;-79
2022/12/29 07:44:30;;;;;;;0.10;0.10;;;;;;;9.40;100.00;100027.91;5009170;28;20033;-78
2022/12/29 07:46:55;;;;;;;0.10;0.10;;;;;;;9.43;100.00;100008.88;5018367;28;20041;-77
2022/12/29 07:49:21;;;;;;;0.05;0.05;;;;;;;9.39;100.00;100037.78;4999681;28;20076;-80
2022/12/29 07:51:46;;;;;;;0.10;0.10;;;;;;;9.33;100.00;100057.03;5019265;28;20031;-79
2022/12/29 07:54:12;;;;;;;0.10;0.10;;;;;;;9.19;100.00;100034.09;5019542;28;20035;-79
2022/12/29 07:56:37;;;;;;;0.10;0.10;;;;;;;9.22;100.00;100036.53;5007826;28;20090;-81
2022/12/29 07:59:03;;;;;;;0.10;0.10;;;;;;;9.14;100.00;100031.81;5020262;28;20064;-77
2022/12/29 08:01:29;;;;;;;0.10;0.10;;;;;;;9.07;100.00;100046.72;5016912;28;20061;-79
2022/12/29 08:03:54;;;;;;;0.10;0.10;;;;;;;9.10;100.00;100030.38;5023082;28;20032;-78
2022/12/29 08:06:20;;;;;;;0.00;0.00;;;;;;;9.15;100.00;100057.63;5013487;28;20026;-79
2022/12/29 08:08:45;;;;;;;0.10;0.10;;;;;;;9.18;100.00;100050.31;5014200;28;20116;-78
2022/12/29 08:11:10;;;;;;;0.10;0.10;;;;;;;9.34;100.00;100064.09;5018872;28;20025;-80
2022/12/29 08:13:36;;;;;;;0.10;0.10;;;;;;;9.05;100.00;100046.00;5021156;28;20076;-80
2022/12/29 08:16:01;;;;;;;0.05;0.05;;;;;;;9.37;100.00;100050.44;5018809;28;20133;-76
2022/12/29 08:18:27;;;;;;;0.10;0.10;;;;;;;9.51;100.00;100053.78;5014098;28;20025;-76
2022/12/29 08:20:52;;;;;;;0.10;0.10;;;;;;;9.35;100.00;100030.13;4999602;28;20079;-79
2022/12/29 08:23:17;;;;;;;0.10;0.10;;;;;;;9.36;100.00;100066.66;5021202;28;20025;-77
2022/12/29 08:25:42;;;;;;;0.10;0.10;;;;;;;9.14;100.00;100047.91;5018241;28;20786;-76
2022/12/29 08:28:08;;;;;;;0.13;0.13;;;;;;;9.21;100.00;100077.69;5019505;28;20388;-78
2022/12/29 08:30:35;;;;;;;0.10;0.10;;;;;;;9.35;100.00;100084.56;5002123;28;20053;-78
2022/12/29 08:33:00;;;;;;;0.13;0.13;;;;;;;9.18;100.00;100071.75;5003569;28;20036;-79
2022/12/29 08:35:26;;;;;;;0.10;0.10;;;;;;;9.14;100.00;100063.97;5017031;28;20025;-77
2022/12/29 08:37:51;;;;;;;0.10;0.10;;;;;;;9.21;100.00;100076.84;5017869;28;20079;-78
2022/12/29 08:40:16;;;;;;;0.10;0.10;;;;;;;9.11;100.00;100058.03;5001552;28;20064;-78
2022/12/29 08:42:42;;;;;;;0.10;0.10;;;;;;;9.05;100.00;100027.25;5018312;28;20133;-78
2022/12/29 08:45:08;;;;;;;0.10;0.10;;;;;;;9.41;100.00;100081.34;5004851;28;20037;-77
2022/12/29 08:47:34;;;;;;;0.10;0.10;;;;;;;9.18;100.00;100036.94;5020007;28;20029;-79
2022/12/29 08:49:59;;;;;;;0.10;0.10;;;;;;;9.48;100.00;100081.69;5005109;28;20361;-79
2022/12/29 08:52:24;;;;;;;0.17;0.17;;;;;;;9.60;100.00;100058.34;5022486;28;20056;-78
2022/12/29 08:54:50;;;;;;;0.10;0.10;;;;;;;9.60;100.00;100069.91;5021224;28;20962;-79
2022/12/29 08:57:15;;;;;;;0.13;0.13;;;;;;;9.67;100.00;100062.19;5020097;28;20066;-78
2022/12/29 08:59:40;;;;;;;0.10;0.10;;;;;;;9.68;100.00;100031.72;5021107;28;20124;-76
2022/12/29 09:02:06;;;;;;;0.10;0.10;;;;;;;9.52;100.00;100060.84;5002314;28;20025;-78
2022/12/29 09:04:31;;;;;;;0.10;0.10;;;;;;;9.61;100.00;100046.63;5018461;28;20033;-81
2022/12/29 09:06:56;;;;;;;0.10;0.10;;;;;;;9.58;100.00;100061.16;5017273;28;20436;-79
2022/12/29 09:09:22;;;;;;;0.10;0.10;;;;;;;9.68;100.00;100039.75;5019382;28;20022;-78
2022/12/29 09:11:47;;;;;;;0.10;0.10;;;;;;;9.56;100.00;100084.56;5024492;28;20053;-80
2022/12/29 09:14:13;;;;;;;0.10;0.10;;;;;;;9.33;100.00;100058.88;5002353;28;20029;-78
2022/12/29 09:16:38;;;;;;;0.10;0.10;;;;;;;9.19;100.00;100015.34;5010502;28;20070;-78
2022/12/29 09:19:04;;;;;;;0.10;0.10;;;;;;;9.32;100.00;100070.56;5029573;28;20109;-76
2022/12/29 09:21:29;;;;;;;0.10;0.10;;;;;;;9.37;100.00;100082.59;5005875;28;20026;-77
2022/12/29 09:23:54;;;;;;;0.10;0.10;;;;;;;9.58;100.00;100079.91;5017542;28;20068;-76
2022/12/29 09:26:20;;;;;;;0.10;0.10;;;;;;;9.71;100.00;100070.81;5022486;28;20025;-75
2022/12/29 09:28:45;;;;;;;0.10;0.10;;;;;;;9.54;100.00;100064.22;5027138;28;20076;-78
2022/12/29 09:31:11;;;;;;;0.10;0.10;;;;;;;9.70;100.00;100053.03;5024473;28;20032;-79
2022/12/29 09:33:36;;;;;;;0.10;0.10;;;;;;;9.74;100.00;100084.81;5026530;28;20052;-76
2022/12/29 09:36:02;;;;;;;0.10;0.10;;;;;;;9.73;100.00;100063.47;5022352;28;20167;-77
2022/12/29 09:38:27;;;;;;;0.10;0.10;;;;;;;9.96;100.00;100069.53;5026650;28;20121;-77
2022/12/29 09:40:55;;;;;;;0.10;0.10;;;;;;;9.82;100.00;100113.63;5023758;28;20393;-77
2022/12/29 09:43:29;;;;;;;0.13;0.13;;;;;;;9.45;100.00;100089.97;5009624;28;20037;-76
2022/12/29 09:46:19;;;;;;;0.10;0.10;;;;;;;9.26;100.00;100088.88;5025249;28;20040;-76
2022/12/29 09:48:48;;;;;;;0.10;0.10;;;;;;;9.00;100.00;100083.88;5019276;28;20033;-78
2022/12/29 09:51:17;;;;;;;0.10;0.10;;;;;;;9.07;100.00;100097.59;5022684;28;20029;-78
2022/12/29 09:53:45;;;;;;;0.10;0.10;;;;;;;9.30;100.00;100124.28;5004295;28;20061;-77
2022/12/29 09:56:15;;;;;;;0.10;0.10;;;;;;;9.19;100.00;100124.34;5022099;28;20396;-80
2022/12/29 09:58:45;;;;;;;0.10;0.10;;;;;;;8.67;100.00;100109.75;5000802;28;20053;-77
2022/12/29 10:01:28;;;;;;;0.10;0.10;;;;;;;8.49;100.00;100149.56;5025707;28;20030;-76
2022/12/29 10:03:57;;;;;;;0.10;0.10;;;;;;;8.49;100.00;100143.38;5023795;28;20033;-78
2022/12/29 10:06:27;;;;;;;0.10;0.10;;;;;;;8.67;100.00;100157.94;5039300;28;20112;-76
2022/12/29 10:09:02;;;;;;;0.10;0.10;;;;;;;8.44;100.00;100111.63;5022406;28;20483;-77
2022/12/29 10:11:33;;;;;;;0.10;0.10;;;;;;;8.54;100.00;100139.34;5018316;28;20040;-76
2022/12/29 10:14:21;;;;;;;0.10;0.10;;;;;;;8.29;100.00;100158.28;5016860;28;20048;-76
2022/12/29 10:17:05;;;;;;;0.10;0.10;;;;;;;8.37;100.00;100155.88;5020462;28;20140;-75
2022/12/29 10:19:38;;;;;;;0.10;0.10;;;;;;;8.12;100.00;100165.84;5006063;28;20847;-73
2022/12/29 10:22:21;;;;;;;0.10;0.10;;;;;;;8.14;100.00;100179.06;5014063;28;20033;-80
2022/12/29 10:24:47;;;;;;;0.10;0.10;;;;;;;8.04;100.00;100160.22;5020319;28;20038;-75
2022/12/29 10:27:15;;;;;;;0.10;0.10;;;;;;;8.17;100.00;100176.16;5022829;28;20082;-76
2022/12/29 10:29:45;;;;;;;0.10;0.10;;;;;;;8.15;100.00;100157.56;5017970;28;20042;-77
2022/12/29 10:32:23;;;;;;;0.10;0.10;;;;;;;8.40;100.00;100187.72;5014831;28;20035;-75
2022/12/29 10:34:52;;;;;;;0.10;0.10;;;;;;;8.28;100.00;100199.38;5022920;28;20025;-75
2022/12/29 10:37:29;;;;;;;0.10;0.10;;;;;;;8.28;100.00;100200.25;4997204;28;20033;-77
2022/12/29 10:39:55;;;;;;;0.10;0.10;;;;;;;8.39;100.00;100216.28;5007611;28;20037;-76
2022/12/29 10:42:28;;;;;;;0.10;0.10;;;;;;;8.37;100.00;100210.19;5014682;28;20117;-78
2022/12/29 10:44:57;;;;;;;0.15;0.15;;;;;;;8.40;100.00;100211.81;5011097;28;20040;-78
2022/12/29 10:47:32;;;;;;;0.10;0.10;;;;;;;8.34;100.00;100218.47;4997955;28;20072;-77
2022/12/29 10:49:58;;;;;;;0.15;0.15;;;;;;;8.16;100.00;100214.56;5018788;28;20033;-75
2022/12/29 10:52:24;;;;;;;0.10;0.10;;;;;;;8.47;100.00;100223.72;5018996;28;20350;-76
2022/12/29 10:54:59;;;;;;;0.13;0.13;;;;;;;8.45;100.00;100185.53;5026454;28;20033;-77
2022/12/29 10:57:36;;;;;;;0.10;0.10;;;;;;;8.46;100.00;100216.69;5023785;28;20053;-73
2022/12/29 11:00:14;;;;;;;0.10;0.10;;;;;;;8.62;100.00;100237.72;5016692;28;20037;-78
2022/12/29 11:02:51;;;;;;;0.10;0.10;;;;;;;8.31;100.00;100228.56;5021871;28;20037;-78
2022/12/29 11:05:23;;;;;;;0.10;0.10;;;;;;;8.44;100.00;100252.53;5023838;28;20026;-77
2022/12/29 11:07:50;;;;;;;0.10;0.10;;;;;;;8.35;100.00;100244.25;5012657;28;20710;-78
2022/12/29 11:10:21;;;;;;;0.10;0.10;;;;;;;8.32;100.00;100232.94;5007286;28;20495;-76
2022/12/29 11:13:16;;;;;;;0.10;0.10;;;;;;;8.60;100.00;100258.44;5020316;28;20164;-76
2022/12/29 11:15:46;;;;;;;0.10;0.10;;;;;;;8.59;100.00;100247.84;5024663;28;20452;-77
2022/12/29 11:18:24;;;;;;;0.10;0.10;;;;;;;8.59;100.00;100263.88;5024630;28;20029;-77
2022/12/29 11:20:55;;;;;;;0.10;0.10;;;;;;;8.39;100.00;100258.25;5002279;28;20029;-77
2022/12/29 11:23:26;;;;;;;0.10;0.10;;;;;;;8.53;100.00;100257.19;5012708;28;20133;-77
2022/12/29 11:26:17;;;;;;;0.10;0.10;;;;;;;8.53;100.00;100259.88;5018575;28;20030;-78
2022/12/29 11:28:49;;;;;;;0.17;0.17;;;;;;;8.83;100.00;100266.47;5017375;28;20055;-78
2022/12/29 11:31:18;;;;;;;0.20;0.20;;;;;;;9.25;100.00;100263.13;5019802;28;20034;-78
2022/12/29 11:33:43;;;;;;;0.20;0.20;;;;;;;9.42;100.00;100248.31;5021666;28;20454;-77
2022/12/29 11:36:15;;;;;;;0.17;0.17;;;;;;;10.07;100.00;100267.06;5013211;28;20021;-78
2022/12/29 11:38:45;;;;;;;0.10;0.10;;;;;;;9.88;100.00;100278.50;5015874;28;20464;-77
2022/12/29 11:41:12;;;;;;;0.10;0.10;;;;;;;9.77;100.00;100303.50;5019232;28;20029;-78
2022/12/29 11:43:41;;;;;;;0.10;0.10;;;;;;;10.11;100.00;100291.78;5022271;28;20047;-76
2022/12/29 11:46:14;;;;;;;0.10;0.10;;;;;;;10.40;100.00;100250.91;5015116;28;20495;-78
2022/12/29 11:48:41;;;;;;;0.13;0.13;;;;;;;10.41;100.00;100280.31;5024179;28;20033;-77
2022/12/29 11:51:06;;;;;;;0.10;0.10;;;;;;;10.39;100.00;100302.88;5017983;28;20045;-81
2022/12/29 11:53:47;;;;;;;0.20;0.20;;;;;;;11.34;100.00;100292.84;4998178;28;20072;-80
2022/12/29 11:56:15;;;;;;;0.10;0.10;;;;;;;11.00;100.00;100298.53;5037118;28;20471;-78
2022/12/29 11:58:40;;;;;;;0.20;0.20;;;;;;;10.43;100.00;100289.09;5012746;28;20034;-76
2022/12/29 12:01:20;;;;;;;0.10;0.10;;;;;;;10.28;100.00;100301.09;5023284;28;20388;-77
2022/12/29 12:03:52;;;;;;;0.10;0.10;;;;;;;10.03;100.00;100303.16;5020358;28;20044;-79
2022/12/29 12:06:21;;;;;;;0.10;0.10;;;;;;;9.99;100.00;100285.63;5022892;28;20108;-79
2022/12/29 12:08:59;;;;;;;0.10;0.10;;;;;;;9.62;100.00;100276.16;5022769;28;20475;-78
2022/12/29 12:11:37;;;;;;;0.10;0.10;;;;;;;9.59;100.00;100282.63;5002497;28;20440;-78